createdAt,value
2022-09-07T00:00:57.839Z,15.65
2022-09-07T00:03:26.427Z,15.62
2022-09-07T00:05:54.404Z,15.57
2022-09-07T00:08:24.916Z,15.53
2022-09-07T00:10:54.799Z,15.54
2022-09-07T00:13:24.973Z,15.65
2022-09-07T00:15:53.273Z,15.65
2022-09-07T00:18:21.437Z,15.63
2022-09-07T00:20:59.151Z,15.61
2022-09-07T00:23:28.268Z,15.61
2022-09-07T00:26:00.722Z,15.64
2022-09-07T00:28:30.179Z,15.69
2022-09-07T00:30:58.273Z,15.78
2022-09-07T00:33:26.547Z,15.58
2022-09-07T00:35:54.559Z,15.84
2022-09-07T00:38:22.599Z,15.91
2022-09-07T00:40:50.551Z,15.96
2022-09-07T00:43:32.340Z,15.94
2022-09-07T00:46:00.720Z,15.93
2022-09-07T00:48:32.679Z,15.98
2022-09-07T00:51:04.137Z,15.96
2022-09-07T00:53:34.311Z,15.98
2022-09-07T00:56:03.658Z,15.92
2022-09-07T00:58:35.547Z,15.91
2022-09-07T01:01:03.457Z,15.62
2022-09-07T01:03:34.395Z,15.81
2022-09-07T01:06:07.922Z,15.70
2022-09-07T01:08:37.160Z,15.76
2022-09-07T01:11:05.182Z,15.75
2022-09-07T01:13:34.680Z,15.72
2022-09-07T01:16:14.083Z,15.01
2022-09-07T01:18:53.730Z,15.67
2022-09-07T01:21:28.243Z,15.63
2022-09-07T01:24:40.433Z,15.62
2022-09-07T01:27:40.927Z,15.61
2022-09-07T01:30:10.433Z,15.55
2022-09-07T01:33:02.428Z,15.50
2022-09-07T01:35:40.124Z,15.24
2022-09-07T01:38:16.500Z,15.44
2022-09-07T01:40:50.400Z,15.38
2022-09-07T01:43:32.343Z,15.37
2022-09-07T01:46:04.516Z,15.38
2022-09-07T01:48:34.907Z,15.33
2022-09-07T01:51:04.577Z,15.37
2022-09-07T01:53:36.441Z,15.36
2022-09-07T01:56:09.023Z,15.34
2022-09-07T01:58:43.411Z,15.33
2022-09-07T02:01:15.317Z,15.31
2022-09-07T02:03:47.993Z,15.27
2022-09-07T02:06:20.415Z,15.24
2022-09-07T02:08:52.870Z,15.20
2022-09-07T02:11:24.852Z,15.20
2022-09-07T02:13:56.731Z,15.23
2022-09-07T02:16:28.216Z,15.18
2022-09-07T02:18:58.344Z,15.13
2022-09-07T02:21:32.724Z,15.12
2022-09-07T02:24:06.912Z,15.08
2022-09-07T02:26:38.087Z,14.99
2022-09-07T02:29:08.036Z,14.90
2022-09-07T02:31:36.134Z,14.94
2022-09-07T02:34:04.376Z,14.89
2022-09-07T02:36:38.520Z,14.88
2022-09-07T02:39:06.485Z,14.93
2022-09-07T02:41:37.101Z,14.95
2022-09-07T02:44:10.464Z,14.85
2022-09-07T02:46:53.351Z,14.87
2022-09-07T02:49:52.253Z,14.84
2022-09-07T02:52:28.780Z,14.74
2022-09-07T02:55:06.540Z,14.71
2022-09-07T02:57:43.352Z,14.69
2022-09-07T03:00:17.997Z,14.62
2022-09-07T03:02:53.297Z,14.65
2022-09-07T03:05:25.334Z,14.61
2022-09-07T03:08:01.213Z,14.65
2022-09-07T03:10:29.985Z,14.63
2022-09-07T03:12:57.876Z,14.40
2022-09-07T03:15:28.897Z,14.54
2022-09-07T03:17:56.844Z,14.55
2022-09-07T03:20:24.881Z,14.59
2022-09-07T03:22:53.528Z,14.23
2022-09-07T03:25:23.116Z,14.59
2022-09-07T03:27:50.992Z,14.57
2022-09-07T03:30:18.891Z,14.41
2022-09-07T03:32:48.198Z,14.44
2022-09-07T03:35:16.195Z,14.42
2022-09-07T03:37:44.085Z,14.50
2022-09-07T03:40:13.927Z,14.59
2022-09-07T03:42:42.668Z,14.61
2022-09-07T03:45:11.876Z,14.66
2022-09-07T03:47:39.907Z,14.65
2022-09-07T03:50:09.973Z,14.59
2022-09-07T03:52:38.304Z,14.52
2022-09-07T03:55:06.980Z,14.48
2022-09-07T03:57:35.032Z,14.42
2022-09-07T04:00:03.424Z,14.26
2022-09-07T04:02:31.463Z,14.36
2022-09-07T04:04:59.608Z,14.32
2022-09-07T04:07:28.854Z,14.55
2022-09-07T04:09:57.084Z,14.91
2022-09-07T04:12:26.124Z,15.18
2022-09-07T04:14:54.050Z,15.36
2022-09-07T04:17:21.915Z,15.45
2022-09-07T04:19:49.824Z,15.49
2022-09-07T04:22:17.710Z,15.38
2022-09-07T04:24:46.964Z,15.41
2022-09-07T04:27:14.863Z,15.33
2022-09-07T04:29:42.724Z,15.42
2022-09-07T04:32:15.571Z,15.47
2022-09-07T04:34:43.788Z,15.57
2022-09-07T04:37:12.588Z,15.62
2022-09-07T04:39:40.554Z,15.79
2022-09-07T04:42:09.864Z,15.78
2022-09-07T04:44:37.780Z,15.80
2022-09-07T04:47:05.777Z,15.98
2022-09-07T04:49:33.653Z,16.21
2022-09-07T04:52:01.599Z,16.53
2022-09-07T04:54:29.476Z,16.87
2022-09-07T04:56:57.420Z,16.99
2022-09-07T04:59:26.724Z,17.15
2022-09-07T05:01:54.693Z,17.42
2022-09-07T05:04:22.640Z,17.47
2022-09-07T05:06:50.535Z,17.53
2022-09-07T05:09:18.434Z,17.83
2022-09-07T05:11:46.331Z,17.78
2022-09-07T05:14:14.188Z,17.70
2022-09-07T05:16:43.494Z,17.85
2022-09-07T05:19:13.218Z,18.34
2022-09-07T05:21:41.369Z,18.10
2022-09-07T05:24:09.280Z,18.34
2022-09-07T05:26:39.423Z,18.69
2022-09-07T05:31:58.595Z,18.82
2022-09-07T05:36:59.956Z,18.60
2022-09-07T05:39:28.621Z,18.33
2022-09-07T05:41:56.527Z,18.85
2022-09-07T05:47:14.182Z,19.68
2022-09-07T05:49:42.089Z,19.19
2022-09-07T05:52:10.495Z,19.61
2022-09-07T05:54:38.465Z,19.87
2022-09-07T05:57:07.333Z,20.31
2022-09-07T05:59:35.337Z,20.35
2022-09-07T06:02:03.414Z,20.23
2022-09-07T06:04:32.784Z,20.13
2022-09-07T06:12:36.893Z,20.12
2022-09-07T06:15:06.010Z,20.55
2022-09-07T06:17:34.045Z,20.80
2022-09-07T06:20:04.186Z,20.69
2022-09-07T06:22:32.176Z,20.79
2022-09-07T06:25:00.356Z,21.47
2022-09-07T06:27:28.312Z,21.78
2022-09-07T06:29:56.481Z,22.25
2022-09-07T06:35:14.661Z,22.69
2022-09-07T06:37:42.661Z,22.50
2022-09-07T06:40:12.090Z,23.03
2022-09-07T06:42:40.610Z,23.52
2022-09-07T06:45:11.035Z,23.15
2022-09-07T06:47:39.135Z,23.27
2022-09-07T06:50:07.835Z,22.68
2022-09-07T06:55:27.668Z,23.91
2022-09-07T06:57:55.768Z,23.84
2022-09-07T07:00:23.751Z,23.70
2022-09-07T07:02:51.808Z,23.65
2022-09-07T07:05:19.719Z,24.03
2022-09-07T07:07:48.962Z,24.01
2022-09-07T07:10:19.708Z,23.38
2022-09-07T07:12:50.197Z,23.90
2022-09-07T07:15:18.060Z,24.15
2022-09-07T07:17:48.030Z,24.70
2022-09-07T07:20:19.924Z,24.05
2022-09-07T07:22:52.656Z,24.01
2022-09-07T07:25:21.169Z,24.30
2022-09-07T07:27:49.533Z,25.11
2022-09-07T07:30:19.443Z,24.75
2022-09-07T07:32:48.061Z,25.20
2022-09-07T07:35:16.420Z,25.87
2022-09-07T07:37:44.371Z,25.72
2022-09-07T07:40:15.588Z,26.64
2022-09-07T07:42:44.934Z,25.88
2022-09-07T07:48:01.294Z,26.38
2022-09-07T07:50:31.074Z,26.75
2022-09-07T07:55:49.150Z,26.48
2022-09-07T07:58:17.194Z,25.44
2022-09-07T08:01:00.732Z,24.91
2022-09-07T08:03:29.121Z,25.39
2022-09-07T08:05:57.625Z,25.79
2022-09-07T08:08:25.507Z,27.09
2022-09-07T08:10:55.142Z,26.91
2022-09-07T08:13:22.979Z,25.80
2022-09-07T08:15:50.896Z,26.13
2022-09-07T08:18:18.983Z,25.98
2022-09-07T08:20:46.836Z,26.44
2022-09-07T08:23:15.436Z,26.44
2022-09-07T08:25:51.074Z,26.26
2022-09-07T08:28:20.428Z,26.78
2022-09-07T08:30:48.632Z,26.75
2022-09-07T08:33:17.013Z,26.65
2022-09-07T08:35:54.523Z,26.31
2022-09-07T08:38:22.366Z,26.51
2022-09-07T08:40:50.535Z,26.81
2022-09-07T08:43:29.152Z,27.19
2022-09-07T08:46:01.839Z,26.19
2022-09-07T08:48:33.653Z,26.52
2022-09-07T08:51:07.941Z,26.08
2022-09-07T08:53:38.659Z,26.59
2022-09-07T08:56:10.727Z,26.83
2022-09-07T08:58:49.311Z,27.51
2022-09-07T09:01:35.755Z,27.73
2022-09-07T09:04:22.491Z,27.96
2022-09-07T09:07:11.564Z,28.59
2022-09-07T09:09:51.848Z,28.08
2022-09-07T09:12:36.871Z,27.73
2022-09-07T09:15:18.311Z,27.42
2022-09-07T09:17:52.560Z,28.32
2022-09-07T09:20:27.565Z,28.62
2022-09-07T09:23:02.066Z,28.73
2022-09-07T09:25:34.626Z,28.96
2022-09-07T09:28:02.998Z,28.40
2022-09-07T09:30:32.195Z,27.56
2022-09-07T09:33:17.037Z,28.37
2022-09-07T09:35:46.532Z,28.57
2022-09-07T09:38:31.294Z,28.64
2022-09-07T09:41:01.744Z,28.60
2022-09-07T09:43:38.119Z,29.28
2022-09-07T09:46:19.127Z,29.04
2022-09-07T09:48:54.676Z,28.69
2022-09-07T09:54:24.717Z,28.06
2022-09-07T09:56:53.516Z,28.72
2022-09-07T10:05:29.638Z,29.18
2022-09-07T10:07:57.972Z,28.84
2022-09-07T10:10:28.211Z,29.29
2022-09-07T10:12:57.412Z,29.60
2022-09-07T10:15:40.176Z,29.57
2022-09-07T10:18:21.267Z,30.09
2022-09-07T10:20:49.541Z,30.20
2022-09-07T10:23:25.381Z,29.77
2022-09-07T10:25:53.528Z,30.62
2022-09-07T10:28:24.803Z,30.80
2022-09-07T10:31:11.034Z,30.60
2022-09-07T10:36:49.648Z,31.06
2022-09-07T10:39:23.789Z,30.90
2022-09-07T10:42:01.361Z,30.79
2022-09-07T10:44:46.517Z,31.29
2022-09-07T10:47:25.994Z,31.05
2022-09-07T10:52:56.359Z,30.41
2022-09-07T10:55:32.705Z,29.13
2022-09-07T10:58:16.207Z,29.74
2022-09-07T11:00:53.393Z,30.38
2022-09-07T11:03:37.545Z,30.90
2022-09-07T11:06:16.168Z,30.40
2022-09-07T11:09:16.310Z,30.47
2022-09-07T11:12:04.072Z,30.08
2022-09-07T11:14:38.025Z,30.70
2022-09-07T11:17:14.192Z,29.99
2022-09-07T11:19:47.927Z,29.35
2022-09-07T11:22:43.294Z,30.20
2022-09-07T11:25:35.362Z,30.87
2022-09-07T11:28:09.950Z,30.32
2022-09-07T11:30:43.871Z,30.61
2022-09-07T11:33:18.580Z,30.69
2022-09-07T11:35:51.633Z,30.41
2022-09-07T11:38:26.678Z,30.78
2022-09-07T11:41:17.496Z,31.35
2022-09-07T11:43:48.232Z,32.09
2022-09-07T11:46:18.975Z,31.90
2022-09-07T11:48:52.024Z,31.34
2022-09-07T11:51:24.905Z,31.27
2022-09-07T11:53:58.211Z,30.52
2022-09-07T11:56:36.400Z,30.51
2022-09-07T11:59:37.026Z,30.68
2022-09-07T12:02:42.026Z,31.42
2022-09-07T12:05:21.830Z,30.62
2022-09-07T12:08:08.047Z,30.28
2022-09-07T12:10:54.267Z,29.60
2022-09-07T12:13:50.955Z,29.67
2022-09-07T12:16:24.187Z,29.65
2022-09-07T12:19:16.949Z,29.68
2022-09-07T12:21:48.781Z,29.71
2022-09-07T12:24:43.191Z,30.35
2022-09-07T12:27:41.153Z,30.06
2022-09-07T12:30:44.572Z,29.77
2022-09-07T12:33:30.763Z,28.87
2022-09-07T12:36:00.890Z,29.70
2022-09-07T12:39:10.480Z,29.46
2022-09-07T12:41:44.611Z,29.81
2022-09-07T12:44:20.989Z,30.50
2022-09-07T12:46:52.946Z,30.65
2022-09-07T12:49:48.255Z,30.03
2022-09-07T12:52:38.876Z,29.50
2022-09-07T12:55:27.988Z,29.38
2022-09-07T12:58:17.194Z,28.93
2022-09-07T13:01:06.474Z,28.86
2022-09-07T13:03:51.351Z,28.39
2022-09-07T13:09:34.052Z,28.16
2022-09-07T13:12:07.204Z,27.01
2022-09-07T13:14:39.540Z,27.68
2022-09-07T13:17:42.473Z,27.16
2022-09-07T13:20:30.238Z,27.12
2022-09-07T13:23:31.324Z,26.93
2022-09-07T13:26:01.390Z,26.81
2022-09-07T13:28:49.477Z,26.93
2022-09-07T13:31:50.933Z,26.98
2022-09-07T13:34:41.156Z,27.20
2022-09-07T13:37:17.592Z,27.17
2022-09-07T13:39:48.191Z,26.90
2022-09-07T13:42:22.630Z,27.23
2022-09-07T13:44:56.811Z,26.87
2022-09-07T13:47:42.538Z,26.97
2022-09-07T13:50:23.295Z,26.86
2022-09-07T13:53:07.158Z,26.69
2022-09-07T13:55:42.914Z,26.55
2022-09-07T13:58:17.887Z,26.44
2022-09-07T14:00:54.109Z,26.54
2022-09-07T14:03:25.212Z,26.60
2022-09-07T14:06:26.824Z,26.74
2022-09-07T14:08:57.243Z,26.84
2022-09-07T14:11:27.352Z,26.69
2022-09-07T14:14:13.793Z,26.45
2022-09-07T14:16:44.938Z,26.45
2022-09-07T14:19:19.609Z,26.86
2022-09-07T14:21:56.110Z,27.17
2022-09-07T14:24:31.352Z,27.34
2022-09-07T14:27:00.148Z,27.38
2022-09-07T14:29:31.218Z,26.62
2022-09-07T14:32:00.769Z,26.70
2022-09-07T14:34:34.848Z,26.51
2022-09-07T14:37:07.084Z,26.34
2022-09-07T14:39:39.819Z,26.31
2022-09-07T14:42:08.332Z,26.37
2022-09-07T14:44:39.014Z,26.45
2022-09-07T14:47:13.151Z,26.50
2022-09-07T14:49:43.757Z,26.53
2022-09-07T14:52:21.216Z,26.53
2022-09-07T14:54:52.705Z,26.31
2022-09-07T14:57:30.431Z,26.19
2022-09-07T14:59:59.348Z,26.23
2022-09-07T15:02:35.032Z,26.18
2022-09-07T15:05:34.529Z,26.03
2022-09-07T15:08:03.851Z,26.02
2022-09-07T15:10:36.857Z,26.04
2022-09-07T15:13:07.390Z,26.13
2022-09-07T15:15:37.468Z,25.95
2022-09-07T15:18:27.419Z,25.92
2022-09-07T15:20:56.695Z,25.87
2022-09-07T15:23:24.550Z,25.75
2022-09-07T15:25:54.130Z,25.56
2022-09-07T15:34:03.488Z,25.67
2022-09-07T15:36:32.680Z,25.65
2022-09-07T15:39:01.134Z,25.65
2022-09-07T15:41:29.609Z,25.63
2022-09-07T15:43:57.853Z,25.52
2022-09-07T15:46:26.220Z,25.30
2022-09-07T15:48:56.890Z,25.36
2022-09-07T15:54:15.878Z,25.35
2022-09-07T15:57:48.088Z,25.01
2022-09-07T15:59:32.489Z,25.21
2022-09-07T16:02:00.713Z,25.15
2022-09-07T16:04:28.972Z,25.07
2022-09-07T16:06:56.930Z,25.04
2022-09-07T16:09:26.580Z,25.01
2022-09-07T16:11:54.762Z,24.91
2022-09-07T16:14:23.051Z,24.81
2022-09-07T16:19:41.006Z,24.72
2022-09-07T16:22:09.647Z,24.67
2022-09-07T16:24:39.144Z,24.59
2022-09-07T16:27:07.175Z,24.46
2022-09-07T16:29:35.060Z,24.37
2022-09-07T16:34:51.257Z,24.14
2022-09-07T16:37:19.185Z,24.09
2022-09-07T16:39:48.420Z,23.95
2022-09-07T16:42:16.284Z,23.89
2022-09-07T16:44:44.139Z,23.81
2022-09-07T16:47:12.789Z,23.70
2022-09-07T16:49:40.620Z,23.61
2022-09-07T16:52:10.995Z,23.41
2022-09-07T16:54:38.994Z,22.98
2022-09-07T16:57:08.248Z,23.31
2022-09-07T16:59:36.232Z,23.15
2022-09-07T17:02:04.109Z,23.18
2022-09-07T17:04:31.990Z,23.09
2022-09-07T17:06:59.877Z,23.03
2022-09-07T17:09:28.709Z,23.01
2022-09-07T17:11:56.573Z,22.98
2022-09-07T17:14:25.805Z,22.61
2022-09-07T17:16:53.787Z,22.89
2022-09-07T17:19:30.049Z,22.86
2022-09-07T17:21:59.783Z,22.82
2022-09-07T17:24:27.765Z,22.74
2022-09-07T17:26:55.673Z,22.65
2022-09-07T17:29:24.921Z,22.54
2022-09-07T17:34:40.668Z,22.49
2022-09-07T17:37:09.383Z,22.42
2022-09-07T17:39:38.709Z,22.34
2022-09-07T17:42:07.354Z,22.20
2022-09-07T17:44:38.484Z,22.11
2022-09-07T17:47:07.095Z,22.02
2022-09-07T17:49:35.063Z,21.95
2022-09-07T17:52:03.411Z,21.84
2022-09-07T17:54:31.979Z,21.79
2022-09-07T17:56:59.964Z,21.66
2022-09-07T18:02:17.468Z,21.47
2022-09-07T18:04:45.618Z,21.36
2022-09-07T18:07:13.520Z,21.23
2022-09-07T18:09:41.434Z,21.15
2022-09-07T18:12:09.378Z,21.06
2022-09-07T18:14:37.293Z,21.00
2022-09-07T18:17:06.188Z,20.98
2022-09-07T18:19:36.379Z,20.80
2022-09-07T18:22:04.730Z,20.86
2022-09-07T18:24:33.239Z,20.83
2022-09-07T18:27:04.944Z,20.80
2022-09-07T18:29:34.258Z,20.75
2022-09-07T18:32:05.576Z,20.46
2022-09-07T18:34:37.596Z,20.59
2022-09-07T18:37:06.083Z,20.51
2022-09-07T18:39:35.753Z,20.27
2022-09-07T18:42:03.958Z,20.35
2022-09-07T18:47:27.586Z,20.22
2022-09-07T18:49:58.031Z,20.16
2022-09-07T18:55:14.364Z,20.00
2022-09-07T18:57:42.268Z,19.99
2022-09-07T19:00:12.214Z,19.97
2022-09-07T19:02:40.128Z,19.92
2022-09-07T19:07:59.795Z,19.84
2022-09-07T19:10:27.782Z,19.79
2022-09-07T19:12:56.426Z,19.70
2022-09-07T19:15:24.339Z,19.71
2022-09-07T19:17:52.245Z,19.68
2022-09-07T19:20:21.581Z,19.34
2022-09-07T19:22:49.441Z,19.58
2022-09-07T19:25:19.324Z,19.55
2022-09-07T19:27:47.193Z,19.53
2022-09-07T19:30:15.528Z,19.47
2022-09-07T19:32:43.488Z,19.47
2022-09-07T19:35:11.335Z,19.42
2022-09-07T19:37:40.587Z,19.35
2022-09-07T19:40:14.775Z,19.31
2022-09-07T19:42:46.385Z,19.24
2022-09-07T19:45:15.118Z,19.05
2022-09-07T19:47:43.017Z,19.17
2022-09-07T19:50:11.177Z,19.07
2022-09-07T19:52:40.390Z,19.07
2022-09-07T19:55:09.685Z,19.05
2022-09-07T19:57:37.532Z,19.04
2022-09-07T20:00:06.692Z,18.98
2022-09-07T20:02:34.526Z,18.86
2022-09-07T20:05:02.355Z,18.82
2022-09-07T20:07:30.191Z,18.85
2022-09-07T20:09:59.422Z,18.81
2022-09-07T20:12:27.291Z,18.77
2022-09-07T20:14:55.204Z,18.41
2022-09-07T20:17:23.056Z,18.55
2022-09-07T20:19:51.627Z,18.70
2022-09-07T20:22:19.476Z,18.69
2022-09-07T20:24:47.381Z,17.82
2022-09-07T20:27:16.622Z,18.65
2022-09-07T20:29:44.592Z,18.60
2022-09-07T20:32:12.424Z,18.55
2022-09-07T20:34:40.328Z,18.52
2022-09-07T20:37:08.156Z,18.47
2022-09-07T20:39:39.319Z,18.40
2022-09-07T20:42:08.011Z,18.36
2022-09-07T20:44:37.250Z,18.12
2022-09-07T20:47:05.311Z,18.25
2022-09-07T20:49:33.228Z,18.22
2022-09-07T20:52:01.119Z,18.09
2022-09-07T20:54:28.991Z,18.20
2022-09-07T20:56:59.189Z,17.83
2022-09-07T20:59:29.929Z,18.16
2022-09-07T21:01:59.243Z,18.09
2022-09-07T21:04:27.524Z,18.13
2022-09-07T21:06:55.437Z,18.12
2022-09-07T21:09:23.276Z,18.13
2022-09-07T21:11:55.104Z,18.12
2022-09-07T21:14:24.979Z,17.99
2022-09-07T21:16:52.796Z,18.03
2022-09-07T21:19:22.283Z,18.11
2022-09-07T21:21:50.162Z,18.06
2022-09-07T21:24:19.697Z,18.05
2022-09-07T21:26:47.615Z,18.08
2022-09-07T21:29:18.662Z,18.08
2022-09-07T21:31:46.816Z,18.05
2022-09-07T21:34:15.660Z,18.03
2022-09-07T21:36:45.444Z,17.87
2022-09-07T21:39:14.677Z,17.99
2022-09-07T21:41:42.975Z,17.97
2022-09-07T21:44:12.887Z,17.95
2022-09-07T21:46:40.888Z,17.92
2022-09-07T21:49:09.184Z,18.01
2022-09-07T21:51:37.919Z,17.93
2022-09-07T21:54:07.592Z,18.08
2022-09-07T21:56:35.551Z,18.06
2022-09-07T21:59:04.691Z,18.00
2022-09-07T22:01:33.036Z,17.95
2022-09-07T22:04:02.810Z,17.95
2022-09-07T22:06:32.475Z,17.93
2022-09-07T22:09:00.543Z,17.95
2022-09-07T22:11:30.813Z,17.88
2022-09-07T22:14:00.365Z,17.77
2022-09-07T22:16:28.473Z,17.81
2022-09-07T22:18:56.565Z,17.77
2022-09-07T22:21:26.251Z,17.77
2022-09-07T22:23:56.951Z,17.89
2022-09-07T22:26:26.708Z,17.87
2022-09-07T22:28:56.220Z,17.84
2022-09-07T22:31:25.863Z,17.79
2022-09-07T22:33:55.090Z,17.63
2022-09-07T22:36:24.703Z,17.64
2022-09-07T22:38:56.020Z,17.39
2022-09-07T22:41:26.149Z,17.36
2022-09-07T22:43:56.047Z,17.63
2022-09-07T22:46:25.697Z,17.62
2022-09-07T22:48:55.351Z,17.58
2022-09-07T22:51:25.295Z,17.58
2022-09-07T22:53:54.138Z,17.56
2022-09-07T22:56:24.445Z,17.52
2022-09-07T22:58:53.845Z,17.45
2022-09-07T23:01:23.581Z,17.12
2022-09-07T23:03:52.043Z,17.28
2022-09-07T23:06:28.627Z,17.34
2022-09-07T23:08:59.013Z,17.37
2022-09-07T23:11:27.820Z,17.38
2022-09-07T23:13:56.830Z,17.19
2022-09-07T23:16:27.419Z,17.45
2022-09-07T23:18:56.180Z,17.42
2022-09-07T23:21:24.088Z,17.38
2022-09-07T23:23:53.126Z,16.95
2022-09-07T23:26:21.707Z,17.21
2022-09-07T23:28:52.360Z,17.14
2022-09-07T23:31:20.466Z,17.13
2022-09-07T23:33:50.248Z,17.15
2022-09-07T23:36:18.608Z,17.15
2022-09-07T23:38:46.876Z,17.12
2022-09-07T23:41:15.319Z,17.07
2022-09-07T23:43:44.087Z,17.05
2022-09-07T23:46:13.116Z,17.00
2022-09-07T23:48:41.238Z,16.85
2022-09-07T23:51:10.464Z,16.91
2022-09-07T23:53:38.511Z,16.92
2022-09-07T23:56:07.338Z,16.90
2022-09-07T23:58:35.484Z,16.82
